sensor_id;sensor_type;location;lat;lon;timestamp;temperature;humidity
20231;DHT22;10274;49.022;9.338;2022-12-11T00:01:08;-0.90;99.90
20231;DHT22;10274;49.022;9.338;2022-12-11T00:03:35;-0.90;99.90
20231;DHT22;10274;49.022;9.338;2022-12-11T00:06:04;-1.10;99.90
20231;DHT22;10274;49.022;9.338;2022-12-11T00:08:31;-1.10;99.90
20231;DHT22;10274;49.022;9.338;2022-12-11T00:10:59;-1.10;99.90
20231;DHT22;10274;49.022;9.338;2022-12-11T00:13:26;-1.10;99.90
20231;DHT22;10274;49.022;9.338;2022-12-11T00:15:52;-1.10;99.90
20231;DHT22;10274;49.022;9.338;2022-12-11T00:18:19;-0.90;99.90
20231;DHT22;10274;49.022;9.338;2022-12-11T00:20:46;-1.00;99.90
20231;DHT22;10274;49.022;9.338;2022-12-11T00:23:13;-1.10;99.90
20231;DHT22;10274;49.022;9.338;2022-12-11T00:25:40;-1.00;99.90
20231;DHT22;10274;49.022;9.338;2022-12-11T00:28:09;-0.90;99.90
20231;DHT22;10274;49.022;9.338;2022-12-11T00:30:38;-0.80;99.90
20231;DHT22;10274;49.022;9.338;2022-12-11T00:33:05;-0.90;99.90
20231;DHT22;10274;49.022;9.338;2022-12-11T00:35:31;-0.90;99.90
20231;DHT22;10274;49.022;9.338;2022-12-11T00:37:58;-0.80;99.90
20231;DHT22;10274;49.022;9.338;2022-12-11T00:40:25;-0.70;99.90
20231;DHT22;10274;49.022;9.338;2022-12-11T00:42:51;-0.70;99.90
20231;DHT22;10274;49.022;9.338;2022-12-11T00:45:19;-0.70;99.90
20231;DHT22;10274;49.022;9.338;2022-12-11T00:47:46;-0.70;99.90
20231;DHT22;10274;49.022;9.338;2022-12-11T00:50:13;-0.60;99.90
20231;DHT22;10274;49.022;9.338;2022-12-11T00:52:39;-0.70;99.90
20231;DHT22;10274;49.022;9.338;2022-12-11T00:55:06;-0.60;99.90
20231;DHT22;10274;49.022;9.338;2022-12-11T00:57:33;-0.50;99.90
20231;DHT22;10274;49.022;9.338;2022-12-11T01:00:00;-0.40;99.90
20231;DHT22;10274;49.022;9.338;2022-12-11T01:02:28;-0.50;99.90
20231;DHT22;10274;49.022;9.338;2022-12-11T01:04:55;-0.50;99.90
20231;DHT22;10274;49.022;9.338;2022-12-11T01:07:21;-0.40;99.90
20231;DHT22;10274;49.022;9.338;2022-12-11T01:09:48;-0.50;99.90
20231;DHT22;10274;49.022;9.338;2022-12-11T01:12:32;-0.40;99.90
20231;DHT22;10274;49.022;9.338;2022-12-11T01:14:59;-0.40;99.90
20231;DHT22;10274;49.022;9.338;2022-12-11T01:17:25;-0.40;99.90
20231;DHT22;10274;49.022;9.338;2022-12-11T01:19:54;-0.40;99.90
20231;DHT22;10274;49.022;9.338;2022-12-11T01:22:21;-0.40;99.90
20231;DHT22;10274;49.022;9.338;2022-12-11T01:24:48;-0.30;96.90
20231;DHT22;10274;49.022;9.338;2022-12-11T01:27:14;-0.30;87.10
20231;DHT22;10274;49.022;9.338;2022-12-11T01:29:41;-0.30;74.90
20231;DHT22;10274;49.022;9.338;2022-12-11T01:32:08;-0.30;65.40
20231;DHT22;10274;49.022;9.338;2022-12-11T01:34:35;-0.40;64.50
20231;DHT22;10274;49.022;9.338;2022-12-11T01:37:03;-0.40;61.50
20231;DHT22;10274;49.022;9.338;2022-12-11T01:39:30;-0.30;68.20
20231;DHT22;10274;49.022;9.338;2022-12-11T01:41:57;-0.30;72.60
20231;DHT22;10274;49.022;9.338;2022-12-11T01:45:12;-0.30;80.70
20231;DHT22;10274;49.022;9.338;2022-12-11T01:47:42;-0.30;59.80
20231;DHT22;10274;49.022;9.338;2022-12-11T01:50:10;-0.20;64.70
20231;DHT22;10274;49.022;9.338;2022-12-11T01:52:38;-0.20;42.10
20231;DHT22;10274;49.022;9.338;2022-12-11T01:55:07;-0.20;44.70
20231;DHT22;10274;49.022;9.338;2022-12-11T01:57:35;-0.20;39.20
20231;DHT22;10274;49.022;9.338;2022-12-11T02:00:03;-0.20;19.50
20231;DHT22;10274;49.022;9.338;2022-12-11T02:02:30;-0.20;29.90
20231;DHT22;10274;49.022;9.338;2022-12-11T02:04:59;-0.20;28.70
20231;DHT22;10274;49.022;9.338;2022-12-11T02:07:27;-0.20;26.60
20231;DHT22;10274;49.022;9.338;2022-12-11T02:09:56;-0.20;12.50
20231;DHT22;10274;49.022;9.338;2022-12-11T02:12:25;-0.10;17.90
20231;DHT22;10274;49.022;9.338;2022-12-11T02:15:01;-0.20;6.60
20231;DHT22;10274;49.022;9.338;2022-12-11T02:17:34;-0.20;1.00
20231;DHT22;10274;49.022;9.338;2022-12-11T02:20:07;-0.20;1.00
20231;DHT22;10274;49.022;9.338;2022-12-11T02:22:51;-0.20;1.00
20231;DHT22;10274;49.022;9.338;2022-12-11T02:25:24;-0.20;1.00
20231;DHT22;10274;49.022;9.338;2022-12-11T02:28:03;-0.10;1.00
20231;DHT22;10274;49.022;9.338;2022-12-11T02:30:32;-0.10;1.00
20231;DHT22;10274;49.022;9.338;2022-12-11T02:33:01;0.00;3.60
20231;DHT22;10274;49.022;9.338;2022-12-11T02:35:31;-0.10;16.00
20231;DHT22;10274;49.022;9.338;2022-12-11T02:38:01;-0.30;16.70
20231;DHT22;10274;49.022;9.338;2022-12-11T02:40:31;-0.40;23.40
20231;DHT22;10274;49.022;9.338;2022-12-11T02:43:03;-0.30;22.10
20231;DHT22;10274;49.022;9.338;2022-12-11T02:45:32;-0.20;9.30
20231;DHT22;10274;49.022;9.338;2022-12-11T02:48:02;-0.30;1.00
20231;DHT22;10274;49.022;9.338;2022-12-11T02:50:30;-0.30;1.00
20231;DHT22;10274;49.022;9.338;2022-12-11T02:53:00;-0.20;1.00
20231;DHT22;10274;49.022;9.338;2022-12-11T02:55:28;-0.20;1.00
20231;DHT22;10274;49.022;9.338;2022-12-11T02:58:01;-0.30;1.00
20231;DHT22;10274;49.022;9.338;2022-12-11T03:00:31;-0.30;1.00
20231;DHT22;10274;49.022;9.338;2022-12-11T03:02:57;-0.30;1.00
20231;DHT22;10274;49.022;9.338;2022-12-11T03:05:24;-0.20;1.00
20231;DHT22;10274;49.022;9.338;2022-12-11T03:07:52;-0.20;1.00
20231;DHT22;10274;49.022;9.338;2022-12-11T03:10:19;-0.20;1.00
20231;DHT22;10274;49.022;9.338;2022-12-11T03:12:48;-0.20;1.00
20231;DHT22;10274;49.022;9.338;2022-12-11T03:15:18;-0.20;1.00
20231;DHT22;10274;49.022;9.338;2022-12-11T03:17:55;-0.30;1.00
20231;DHT22;10274;49.022;9.338;2022-12-11T03:20:33;-0.20;1.00
20231;DHT22;10274;49.022;9.338;2022-12-11T03:23:05;-0.30;1.00
20231;DHT22;10274;49.022;9.338;2022-12-11T03:25:41;-0.30;1.00
20231;DHT22;10274;49.022;9.338;2022-12-11T03:28:11;-0.30;1.00
20231;DHT22;10274;49.022;9.338;2022-12-11T03:30:40;-0.30;1.00
20231;DHT22;10274;49.022;9.338;2022-12-11T03:33:11;-0.30;1.00
20231;DHT22;10274;49.022;9.338;2022-12-11T03:35:41;-0.20;1.00
20231;DHT22;10274;49.022;9.338;2022-12-11T03:38:12;-0.30;1.00
20231;DHT22;10274;49.022;9.338;2022-12-11T03:40:42;-0.30;1.00
20231;DHT22;10274;49.022;9.338;2022-12-11T03:43:10;-0.30;1.00
20231;DHT22;10274;49.022;9.338;2022-12-11T03:45:38;-0.30;1.00
20231;DHT22;10274;49.022;9.338;2022-12-11T03:48:09;-0.30;1.00
20231;DHT22;10274;49.022;9.338;2022-12-11T03:50:38;-0.30;2.80
20231;DHT22;10274;49.022;9.338;2022-12-11T03:53:06;-0.40;7.10
20231;DHT22;10274;49.022;9.338;2022-12-11T03:55:35;-0.40;15.30
20231;DHT22;10274;49.022;9.338;2022-12-11T03:58:03;-0.40;21.00
20231;DHT22;10274;49.022;9.338;2022-12-11T04:00:30;-0.30;28.50
20231;DHT22;10274;49.022;9.338;2022-12-11T04:02:57;-0.40;33.20
20231;DHT22;10274;49.022;9.338;2022-12-11T04:05:40;-0.40;30.70
20231;DHT22;10274;49.022;9.338;2022-12-11T04:08:07;-0.40;38.90
20231;DHT22;10274;49.022;9.338;2022-12-11T04:10:34;-0.40;39.80
20231;DHT22;10274;49.022;9.338;2022-12-11T04:13:01;-0.40;43.50
20231;DHT22;10274;49.022;9.338;2022-12-11T04:15:27;-0.40;42.60
20231;DHT22;10274;49.022;9.338;2022-12-11T04:17:53;-0.40;45.20
20231;DHT22;10274;49.022;9.338;2022-12-11T04:20:37;-0.40;48.20
20231;DHT22;10274;49.022;9.338;2022-12-11T04:23:22;-0.40;37.40
20231;DHT22;10274;49.022;9.338;2022-12-11T04:26:09;-0.40;34.00
20231;DHT22;10274;49.022;9.338;2022-12-11T04:28:36;-0.40;37.00
20231;DHT22;10274;49.022;9.338;2022-12-11T04:31:03;-0.30;37.80
20231;DHT22;10274;49.022;9.338;2022-12-11T04:33:30;-0.30;38.00
20231;DHT22;10274;49.022;9.338;2022-12-11T04:35:57;-0.30;37.30
20231;DHT22;10274;49.022;9.338;2022-12-11T04:38:26;-0.30;34.30
20231;DHT22;10274;49.022;9.338;2022-12-11T04:40:57;-0.30;23.70
20231;DHT22;10274;49.022;9.338;2022-12-11T04:43:24;-0.30;28.20
20231;DHT22;10274;49.022;9.338;2022-12-11T04:46:00;-0.30;28.10
20231;DHT22;10274;49.022;9.338;2022-12-11T04:48:27;-0.20;29.80
20231;DHT22;10274;49.022;9.338;2022-12-11T04:50:53;-0.30;32.50
20231;DHT22;10274;49.022;9.338;2022-12-11T04:53:20;-0.30;31.80
20231;DHT22;10274;49.022;9.338;2022-12-11T04:55:48;-0.30;27.10
20231;DHT22;10274;49.022;9.338;2022-12-11T04:58:15;-0.30;27.80
20231;DHT22;10274;49.022;9.338;2022-12-11T05:00:42;-0.30;26.50
20231;DHT22;10274;49.022;9.338;2022-12-11T05:03:09;-0.20;25.90
20231;DHT22;10274;49.022;9.338;2022-12-11T05:05:35;-0.20;23.60
20231;DHT22;10274;49.022;9.338;2022-12-11T05:08:03;-0.20;28.10
20231;DHT22;10274;49.022;9.338;2022-12-11T05:10:30;-0.20;33.20
20231;DHT22;10274;49.022;9.338;2022-12-11T05:12:58;-0.30;32.20
20231;DHT22;10274;49.022;9.338;2022-12-11T05:15:24;-0.30;25.10
20231;DHT22;10274;49.022;9.338;2022-12-11T05:17:51;-0.40;30.90
20231;DHT22;10274;49.022;9.338;2022-12-11T05:20:18;-0.40;37.20
20231;DHT22;10274;49.022;9.338;2022-12-11T05:22:45;-0.40;41.50
20231;DHT22;10274;49.022;9.338;2022-12-11T05:25:11;-0.30;43.80
20231;DHT22;10274;49.022;9.338;2022-12-11T05:27:38;-0.30;46.50
20231;DHT22;10274;49.022;9.338;2022-12-11T05:30:08;-0.30;39.50
20231;DHT22;10274;49.022;9.338;2022-12-11T05:32:35;-0.30;34.10
20231;DHT22;10274;49.022;9.338;2022-12-11T05:35:01;-0.40;37.90
20231;DHT22;10274;49.022;9.338;2022-12-11T05:37:29;-0.40;40.20
20231;DHT22;10274;49.022;9.338;2022-12-11T05:39:55;-0.40;44.00
20231;DHT22;10274;49.022;9.338;2022-12-11T05:42:22;-0.40;50.80
20231;DHT22;10274;49.022;9.338;2022-12-11T05:44:49;-0.40;54.80
20231;DHT22;10274;49.022;9.338;2022-12-11T05:47:17;-0.30;52.00
20231;DHT22;10274;49.022;9.338;2022-12-11T05:49:44;-0.30;51.70
20231;DHT22;10274;49.022;9.338;2022-12-11T05:52:11;-0.30;40.30
20231;DHT22;10274;49.022;9.338;2022-12-11T05:54:38;-0.40;42.40
20231;DHT22;10274;49.022;9.338;2022-12-11T05:57:05;-0.30;42.50
20231;DHT22;10274;49.022;9.338;2022-12-11T05:59:32;-0.30;36.00
20231;DHT22;10274;49.022;9.338;2022-12-11T06:01:58;-0.30;40.60
20231;DHT22;10274;49.022;9.338;2022-12-11T06:04:26;-0.30;38.70
20231;DHT22;10274;49.022;9.338;2022-12-11T06:06:53;-0.40;47.70
20231;DHT22;10274;49.022;9.338;2022-12-11T06:09:20;-0.40;51.30
20231;DHT22;10274;49.022;9.338;2022-12-11T06:11:47;-0.30;54.00
20231;DHT22;10274;49.022;9.338;2022-12-11T06:14:13;-0.30;56.90
20231;DHT22;10274;49.022;9.338;2022-12-11T06:16:40;-0.30;60.60
20231;DHT22;10274;49.022;9.338;2022-12-11T06:19:12;-0.40;55.60
20231;DHT22;10274;49.022;9.338;2022-12-11T06:21:40;-0.30;55.90
20231;DHT22;10274;49.022;9.338;2022-12-11T06:24:09;-0.30;56.40
20231;DHT22;10274;49.022;9.338;2022-12-11T06:26:36;-0.30;50.70
20231;DHT22;10274;49.022;9.338;2022-12-11T06:29:03;-0.30;51.80
20231;DHT22;10274;49.022;9.338;2022-12-11T06:31:30;-0.20;50.50
20231;DHT22;10274;49.022;9.338;2022-12-11T06:33:57;-0.30;60.90
20231;DHT22;10274;49.022;9.338;2022-12-11T06:36:24;-0.30;56.00
20231;DHT22;10274;49.022;9.338;2022-12-11T06:38:53;-0.30;65.40
20231;DHT22;10274;49.022;9.338;2022-12-11T06:41:21;-0.30;55.80
20231;DHT22;10274;49.022;9.338;2022-12-11T06:43:47;-0.30;53.60
20231;DHT22;10274;49.022;9.338;2022-12-11T06:46:16;-0.30;55.40
20231;DHT22;10274;49.022;9.338;2022-12-11T06:48:44;-0.40;58.50
20231;DHT22;10274;49.022;9.338;2022-12-11T06:51:12;-0.30;66.30
20231;DHT22;10274;49.022;9.338;2022-12-11T06:53:39;-0.20;78.90
20231;DHT22;10274;49.022;9.338;2022-12-11T06:56:10;-0.20;91.40
20231;DHT22;10274;49.022;9.338;2022-12-11T06:58:37;-0.20;92.20
20231;DHT22;10274;49.022;9.338;2022-12-11T07:01:13;-0.30;95.30
20231;DHT22;10274;49.022;9.338;2022-12-11T07:03:40;-0.30;94.50
20231;DHT22;10274;49.022;9.338;2022-12-11T07:06:07;-0.20;90.30
20231;DHT22;10274;49.022;9.338;2022-12-11T07:08:33;-0.30;91.80
20231;DHT22;10274;49.022;9.338;2022-12-11T07:11:04;-0.30;89.70
20231;DHT22;10274;49.022;9.338;2022-12-11T07:13:32;-0.40;91.10
20231;DHT22;10274;49.022;9.338;2022-12-11T07:16:00;-0.30;92.40
20231;DHT22;10274;49.022;9.338;2022-12-11T07:18:29;-0.30;94.80
20231;DHT22;10274;49.022;9.338;2022-12-11T07:20:57;-0.10;97.40
20231;DHT22;10274;49.022;9.338;2022-12-11T07:23:24;-0.30;99.00
20231;DHT22;10274;49.022;9.338;2022-12-11T07:25:51;-0.30;89.00
20231;DHT22;10274;49.022;9.338;2022-12-11T07:28:18;-0.30;82.90
20231;DHT22;10274;49.022;9.338;2022-12-11T07:30:46;-0.30;80.70
20231;DHT22;10274;49.022;9.338;2022-12-11T07:33:13;-0.20;90.80
20231;DHT22;10274;49.022;9.338;2022-12-11T07:35:40;-0.20;91.10
20231;DHT22;10274;49.022;9.338;2022-12-11T07:38:07;-0.20;92.80
20231;DHT22;10274;49.022;9.338;2022-12-11T07:40:34;-0.10;86.80
20231;DHT22;10274;49.022;9.338;2022-12-11T07:43:01;-0.10;87.10
20231;DHT22;10274;49.022;9.338;2022-12-11T07:45:28;-0.20;82.60
20231;DHT22;10274;49.022;9.338;2022-12-11T07:47:56;0.00;88.00
20231;DHT22;10274;49.022;9.338;2022-12-11T07:50:23;0.00;91.60
20231;DHT22;10274;49.022;9.338;2022-12-11T07:52:50;0.00;83.40
20231;DHT22;10274;49.022;9.338;2022-12-11T07:55:16;0.10;72.00
20231;DHT22;10274;49.022;9.338;2022-12-11T07:57:43;0.00;67.10
20231;DHT22;10274;49.022;9.338;2022-12-11T08:00:10;-0.10;62.80
20231;DHT22;10274;49.022;9.338;2022-12-11T08:02:37;-0.20;74.90
20231;DHT22;10274;49.022;9.338;2022-12-11T08:05:07;-0.10;75.50
20231;DHT22;10274;49.022;9.338;2022-12-11T08:07:34;-0.10;70.50
20231;DHT22;10274;49.022;9.338;2022-12-11T08:10:01;-0.10;61.70
20231;DHT22;10274;49.022;9.338;2022-12-11T08:12:28;-0.20;62.80
20231;DHT22;10274;49.022;9.338;2022-12-11T08:14:54;-0.20;70.00
20231;DHT22;10274;49.022;9.338;2022-12-11T08:17:21;-0.20;75.40
20231;DHT22;10274;49.022;9.338;2022-12-11T08:19:48;-0.20;81.30
20231;DHT22;10274;49.022;9.338;2022-12-11T08:22:16;-0.20;78.20
20231;DHT22;10274;49.022;9.338;2022-12-11T08:24:43;-0.20;68.90
20231;DHT22;10274;49.022;9.338;2022-12-11T08:27:09;-0.30;67.30
20231;DHT22;10274;49.022;9.338;2022-12-11T08:29:36;-0.30;70.70
20231;DHT22;10274;49.022;9.338;2022-12-11T08:32:03;-0.20;74.00
20231;DHT22;10274;49.022;9.338;2022-12-11T08:34:30;-0.20;64.30
20231;DHT22;10274;49.022;9.338;2022-12-11T08:36:57;-0.30;56.80
20231;DHT22;10274;49.022;9.338;2022-12-11T08:39:25;-0.10;58.50
20231;DHT22;10274;49.022;9.338;2022-12-11T08:41:52;-0.20;65.30
20231;DHT22;10274;49.022;9.338;2022-12-11T08:44:19;-0.10;65.20
20231;DHT22;10274;49.022;9.338;2022-12-11T08:46:49;-0.10;45.30
20231;DHT22;10274;49.022;9.338;2022-12-11T08:49:16;-0.10;47.00
20231;DHT22;10274;49.022;9.338;2022-12-11T08:51:42;-0.10;57.70
20231;DHT22;10274;49.022;9.338;2022-12-11T08:54:09;0.00;42.50
20231;DHT22;10274;49.022;9.338;2022-12-11T08:56:37;0.00;25.70
20231;DHT22;10274;49.022;9.338;2022-12-11T08:59:04;0.00;30.00
20231;DHT22;10274;49.022;9.338;2022-12-11T09:01:31;0.00;38.30
20231;DHT22;10274;49.022;9.338;2022-12-11T09:03:58;0.00;22.00
20231;DHT22;10274;49.022;9.338;2022-12-11T09:06:26;-0.10;8.40
20231;DHT22;10274;49.022;9.338;2022-12-11T09:08:54;-0.10;28.80
20231;DHT22;10274;49.022;9.338;2022-12-11T09:11:24;-0.20;24.70
20231;DHT22;10274;49.022;9.338;2022-12-11T09:13:53;-0.10;25.20
20231;DHT22;10274;49.022;9.338;2022-12-11T09:16:22;-0.10;38.90
20231;DHT22;10274;49.022;9.338;2022-12-11T09:18:50;-0.20;33.20
20231;DHT22;10274;49.022;9.338;2022-12-11T09:21:20;-0.20;53.00
20231;DHT22;10274;49.022;9.338;2022-12-11T09:23:47;-0.20;49.40
20231;DHT22;10274;49.022;9.338;2022-12-11T09:26:16;-0.20;47.00
20231;DHT22;10274;49.022;9.338;2022-12-11T09:28:43;-0.10;53.70
20231;DHT22;10274;49.022;9.338;2022-12-11T09:31:13;-0.10;58.50
20231;DHT22;10274;49.022;9.338;2022-12-11T09:33:41;-0.10;45.40
20231;DHT22;10274;49.022;9.338;2022-12-11T09:36:09;-0.20;45.30
20231;DHT22;10274;49.022;9.338;2022-12-11T09:38:36;-0.20;57.20
20231;DHT22;10274;49.022;9.338;2022-12-11T09:41:19;-0.20;46.50
20231;DHT22;10274;49.022;9.338;2022-12-11T09:43:51;-0.20;41.10
20231;DHT22;10274;49.022;9.338;2022-12-11T09:46:21;-0.10;47.60
20231;DHT22;10274;49.022;9.338;2022-12-11T09:48:48;-0.10;40.60
20231;DHT22;10274;49.022;9.338;2022-12-11T09:51:19;-0.10;48.80
20231;DHT22;10274;49.022;9.338;2022-12-11T09:53:49;-0.20;58.20
20231;DHT22;10274;49.022;9.338;2022-12-11T09:56:21;-0.30;51.20
20231;DHT22;10274;49.022;9.338;2022-12-11T09:58:57;-0.20;29.80
20231;DHT22;10274;49.022;9.338;2022-12-11T10:01:33;0.00;14.50
20231;DHT22;10274;49.022;9.338;2022-12-11T10:04:28;0.00;4.30
20231;DHT22;10274;49.022;9.338;2022-12-11T10:07:02;0.00;1.00
20231;DHT22;10274;49.022;9.338;2022-12-11T10:09:37;0.00;1.00
20231;DHT22;10274;49.022;9.338;2022-12-11T10:12:19;0.10;1.00
20231;DHT22;10274;49.022;9.338;2022-12-11T10:15:03;0.00;1.00
20231;DHT22;10274;49.022;9.338;2022-12-11T10:17:37;0.00;1.00
20231;DHT22;10274;49.022;9.338;2022-12-11T10:20:15;0.00;11.30
20231;DHT22;10274;49.022;9.338;2022-12-11T10:22:43;0.10;1.00
20231;DHT22;10274;49.022;9.338;2022-12-11T10:25:19;0.00;1.00
20231;DHT22;10274;49.022;9.338;2022-12-11T10:27:46;-0.10;1.00
20231;DHT22;10274;49.022;9.338;2022-12-11T10:30:16;-0.10;1.00
20231;DHT22;10274;49.022;9.338;2022-12-11T10:32:49;0.20;1.00
20231;DHT22;10274;49.022;9.338;2022-12-11T10:35:19;0.10;1.00
20231;DHT22;10274;49.022;9.338;2022-12-11T10:37:49;0.10;1.00
20231;DHT22;10274;49.022;9.338;2022-12-11T10:40:17;0.10;1.00
20231;DHT22;10274;49.022;9.338;2022-12-11T10:42:51;0.30;1.00
20231;DHT22;10274;49.022;9.338;2022-12-11T10:45:18;0.20;1.00
20231;DHT22;10274;49.022;9.338;2022-12-11T10:47:47;0.10;1.00
20231;DHT22;10274;49.022;9.338;2022-12-11T10:50:24;0.20;1.00
20231;DHT22;10274;49.022;9.338;2022-12-11T10:52:51;0.20;1.00
20231;DHT22;10274;49.022;9.338;2022-12-11T10:55:20;0.10;1.00
20231;DHT22;10274;49.022;9.338;2022-12-11T10:57:54;0.20;1.00
20231;DHT22;10274;49.022;9.338;2022-12-11T11:00:30;0.10;1.00
20231;DHT22;10274;49.022;9.338;2022-12-11T11:03:00;0.00;1.00
20231;DHT22;10274;49.022;9.338;2022-12-11T11:05:29;0.20;1.00
20231;DHT22;10274;49.022;9.338;2022-12-11T11:08:10;0.10;1.00
20231;DHT22;10274;49.022;9.338;2022-12-11T11:10:47;0.20;1.00
20231;DHT22;10274;49.022;9.338;2022-12-11T11:13:15;0.40;1.00
20231;DHT22;10274;49.022;9.338;2022-12-11T11:15:41;0.50;1.00
20231;DHT22;10274;49.022;9.338;2022-12-11T11:18:15;0.60;1.00
20231;DHT22;10274;49.022;9.338;2022-12-11T11:20:46;0.70;1.00
20231;DHT22;10274;49.022;9.338;2022-12-11T11:23:14;0.70;1.00
20231;DHT22;10274;49.022;9.338;2022-12-11T11:25:49;0.80;1.00
20231;DHT22;10274;49.022;9.338;2022-12-11T11:28:19;0.80;1.00
20231;DHT22;10274;49.022;9.338;2022-12-11T11:30:56;0.90;1.00
20231;DHT22;10274;49.022;9.338;2022-12-11T11:33:26;0.90;1.00
20231;DHT22;10274;49.022;9.338;2022-12-11T11:35:55;0.80;1.00
20231;DHT22;10274;49.022;9.338;2022-12-11T11:38:25;0.80;1.00
20231;DHT22;10274;49.022;9.338;2022-12-11T11:40:59;1.00;1.00
20231;DHT22;10274;49.022;9.338;2022-12-11T11:43:35;1.20;1.00
20231;DHT22;10274;49.022;9.338;2022-12-11T11:46:06;1.20;1.00
20231;DHT22;10274;49.022;9.338;2022-12-11T11:48:44;1.30;1.00
20231;DHT22;10274;49.022;9.338;2022-12-11T11:51:15;1.50;1.00
20231;DHT22;10274;49.022;9.338;2022-12-11T11:53:47;1.40;1.00
20231;DHT22;10274;49.022;9.338;2022-12-11T11:56:21;1.50;1.00
20231;DHT22;10274;49.022;9.338;2022-12-11T11:58:56;1.50;1.00
20231;DHT22;10274;49.022;9.338;2022-12-11T12:01:25;1.20;1.00
20231;DHT22;10274;49.022;9.338;2022-12-11T12:03:54;1.10;1.00
20231;DHT22;10274;49.022;9.338;2022-12-11T12:06:41;0.90;1.00
20231;DHT22;10274;49.022;9.338;2022-12-11T12:09:21;1.20;1.00
20231;DHT22;10274;49.022;9.338;2022-12-11T12:11:56;1.10;1.00
20231;DHT22;10274;49.022;9.338;2022-12-11T12:14:30;1.20;1.00
20231;DHT22;10274;49.022;9.338;2022-12-11T12:17:05;1.40;1.00
20231;DHT22;10274;49.022;9.338;2022-12-11T12:19:42;1.50;1.00
20231;DHT22;10274;49.022;9.338;2022-12-11T12:22:20;1.10;1.00
20231;DHT22;10274;49.022;9.338;2022-12-11T12:24:57;1.20;1.00
20231;DHT22;10274;49.022;9.338;2022-12-11T12:27:31;1.00;1.00
20231;DHT22;10274;49.022;9.338;2022-12-11T12:30:04;1.10;1.00
20231;DHT22;10274;49.022;9.338;2022-12-11T12:32:38;1.30;1.00
20231;DHT22;10274;49.022;9.338;2022-12-11T12:35:19;1.30;1.00
20231;DHT22;10274;49.022;9.338;2022-12-11T12:37:56;1.30;1.00
20231;DHT22;10274;49.022;9.338;2022-12-11T12:40:28;1.30;1.00
20231;DHT22;10274;49.022;9.338;2022-12-11T12:43:03;1.40;1.00
20231;DHT22;10274;49.022;9.338;2022-12-11T12:45:35;1.40;1.00
20231;DHT22;10274;49.022;9.338;2022-12-11T12:48:06;1.30;1.00
20231;DHT22;10274;49.022;9.338;2022-12-11T12:50:37;1.20;1.00
20231;DHT22;10274;49.022;9.338;2022-12-11T12:53:08;1.20;1.00
20231;DHT22;10274;49.022;9.338;2022-12-11T12:55:35;1.40;1.00
20231;DHT22;10274;49.022;9.338;2022-12-11T12:58:04;1.40;1.00
20231;DHT22;10274;49.022;9.338;2022-12-11T13:00:34;1.40;1.00
20231;DHT22;10274;49.022;9.338;2022-12-11T13:03:13;1.40;1.00
20231;DHT22;10274;49.022;9.338;2022-12-11T13:05:44;1.40;1.00
20231;DHT22;10274;49.022;9.338;2022-12-11T13:08:11;1.40;1.00
20231;DHT22;10274;49.022;9.338;2022-12-11T13:10:40;1.30;1.00
20231;DHT22;10274;49.022;9.338;2022-12-11T13:13:29;1.30;1.00
20231;DHT22;10274;49.022;9.338;2022-12-11T13:16:06;1.10;1.00
20231;DHT22;10274;49.022;9.338;2022-12-11T13:18:36;1.10;1.00
20231;DHT22;10274;49.022;9.338;2022-12-11T13:21:27;1.00;1.00
20231;DHT22;10274;49.022;9.338;2022-12-11T13:24:05;1.00;1.00
20231;DHT22;10274;49.022;9.338;2022-12-11T13:26:40;1.00;1.00
20231;DHT22;10274;49.022;9.338;2022-12-11T13:29:27;1.10;1.00
20231;DHT22;10274;49.022;9.338;2022-12-11T13:31:57;1.10;1.00
20231;DHT22;10274;49.022;9.338;2022-12-11T13:34:24;1.10;1.00
20231;DHT22;10274;49.022;9.338;2022-12-11T13:36:55;1.00;1.00
20231;DHT22;10274;49.022;9.338;2022-12-11T13:39:23;1.00;1.00
20231;DHT22;10274;49.022;9.338;2022-12-11T13:41:53;0.90;1.00
20231;DHT22;10274;49.022;9.338;2022-12-11T13:44:25;0.80;1.00
20231;DHT22;10274;49.022;9.338;2022-12-11T13:46:54;0.70;1.00
20231;DHT22;10274;49.022;9.338;2022-12-11T13:49:24;0.80;1.00
20231;DHT22;10274;49.022;9.338;2022-12-11T13:51:57;0.80;1.00
20231;DHT22;10274;49.022;9.338;2022-12-11T13:54:25;0.80;1.00
20231;DHT22;10274;49.022;9.338;2022-12-11T13:56:54;0.80;1.00
20231;DHT22;10274;49.022;9.338;2022-12-11T13:59:24;0.80;1.00
20231;DHT22;10274;49.022;9.338;2022-12-11T14:01:53;0.90;1.00
20231;DHT22;10274;49.022;9.338;2022-12-11T14:04:21;0.90;1.00
20231;DHT22;10274;49.022;9.338;2022-12-11T14:06:49;1.00;1.00
20231;DHT22;10274;49.022;9.338;2022-12-11T14:09:20;1.00;1.00
20231;DHT22;10274;49.022;9.338;2022-12-11T14:11:48;0.90;1.00
20231;DHT22;10274;49.022;9.338;2022-12-11T14:14:19;0.90;1.00
20231;DHT22;10274;49.022;9.338;2022-12-11T14:16:47;1.00;1.00
20231;DHT22;10274;49.022;9.338;2022-12-11T14:19:17;1.00;1.00
20231;DHT22;10274;49.022;9.338;2022-12-11T14:21:55;0.90;1.00
20231;DHT22;10274;49.022;9.338;2022-12-11T14:24:23;0.90;1.00
20231;DHT22;10274;49.022;9.338;2022-12-11T14:26:52;0.80;1.00
20231;DHT22;10274;49.022;9.338;2022-12-11T14:29:24;0.80;1.00
20231;DHT22;10274;49.022;9.338;2022-12-11T14:31:51;0.80;1.00
20231;DHT22;10274;49.022;9.338;2022-12-11T14:34:24;0.80;1.00
20231;DHT22;10274;49.022;9.338;2022-12-11T14:36:52;0.80;1.00
20231;DHT22;10274;49.022;9.338;2022-12-11T14:39:25;0.80;1.00
20231;DHT22;10274;49.022;9.338;2022-12-11T14:41:57;0.70;1.00
20231;DHT22;10274;49.022;9.338;2022-12-11T14:44:29;0.70;1.00
20231;DHT22;10274;49.022;9.338;2022-12-11T14:46:58;0.70;1.00
20231;DHT22;10274;49.022;9.338;2022-12-11T14:49:37;0.70;1.00
20231;DHT22;10274;49.022;9.338;2022-12-11T14:52:14;0.70;1.00
20231;DHT22;10274;49.022;9.338;2022-12-11T14:54:46;0.60;1.00
20231;DHT22;10274;49.022;9.338;2022-12-11T14:57:18;0.60;1.00
20231;DHT22;10274;49.022;9.338;2022-12-11T14:59:47;0.60;1.00
20231;DHT22;10274;49.022;9.338;2022-12-11T15:02:24;0.60;1.00
20231;DHT22;10274;49.022;9.338;2022-12-11T15:05:02;0.60;1.00
20231;DHT22;10274;49.022;9.338;2022-12-11T15:07:31;0.60;1.00
20231;DHT22;10274;49.022;9.338;2022-12-11T15:09:59;0.60;1.00
20231;DHT22;10274;49.022;9.338;2022-12-11T15:12:26;0.60;1.00
20231;DHT22;10274;49.022;9.338;2022-12-11T15:14:54;0.60;1.00
20231;DHT22;10274;49.022;9.338;2022-12-11T15:17:23;0.50;1.00
20231;DHT22;10274;49.022;9.338;2022-12-11T15:19:52;0.50;1.00
20231;DHT22;10274;49.022;9.338;2022-12-11T15:22:21;0.50;1.00
20231;DHT22;10274;49.022;9.338;2022-12-11T15:24:51;0.60;1.00
20231;DHT22;10274;49.022;9.338;2022-12-11T15:27:32;0.60;1.00
20231;DHT22;10274;49.022;9.338;2022-12-11T15:30:00;0.60;1.00
20231;DHT22;10274;49.022;9.338;2022-12-11T15:32:26;0.60;1.00
20231;DHT22;10274;49.022;9.338;2022-12-11T15:34:55;0.50;1.00
20231;DHT22;10274;49.022;9.338;2022-12-11T15:37:24;0.50;1.00
20231;DHT22;10274;49.022;9.338;2022-12-11T15:39:51;0.50;1.00
20231;DHT22;10274;49.022;9.338;2022-12-11T15:42:24;0.40;1.00
20231;DHT22;10274;49.022;9.338;2022-12-11T15:44:53;0.40;1.00
20231;DHT22;10274;49.022;9.338;2022-12-11T15:47:23;0.40;1.00
20231;DHT22;10274;49.022;9.338;2022-12-11T15:49:53;0.30;1.00
20231;DHT22;10274;49.022;9.338;2022-12-11T15:52:20;0.50;1.00
20231;DHT22;10274;49.022;9.338;2022-12-11T15:54:47;0.50;1.00
20231;DHT22;10274;49.022;9.338;2022-12-11T15:57:16;0.50;1.00
20231;DHT22;10274;49.022;9.338;2022-12-11T15:59:46;0.50;1.00
20231;DHT22;10274;49.022;9.338;2022-12-11T16:02:15;0.50;1.00